<?xml version="1.0" encoding="UTF-8" standalone="no" ?><gpx xmlns="http://www.topografix.com/GPX/1/1" xmlns:gpxx="http://www.garmin.com/xmlschemas/GpxExtensions/v3" xmlns:wptx1="http://www.garmin.com/xmlschemas/WaypointExtension/v1" xmlns:gpxtpx="http://www.garmin.com/xmlschemas/TrackPointExtension/v1" creator="GuideVTT.com" version="1.1" xmlns:xsi="http://www.w3.org/2001/XMLSchema-instance" xsi:schemaLocation="http://www.topografix.com/GPX/1/1 http://www.topografix.com/GPX/1/1/gpx.xsd http://www.garmin.com/xmlschemas/GpxExtensions/v3 http://www8.garmin.com/xmlschemas/GpxExtensionsv3.xsd http://www.garmin.com/xmlschemas/WaypointExtension/v1 http://www8.garmin.com/xmlschemas/WaypointExtensionv1.xsd http://www.garmin.com/xmlschemas/TrackPointExtension/v1 http://www.garmin.com/xmlschemas/TrackPointExtensionv1.xsd">
<metadata><link href="http://www.garmin.com"><text>Garmin International</text></link><time>2013-06-22T15:13:50Z</time></metadata>
<trk><name>fileoutfafa1.gpx</name><extensions><gpxx:TrackExtension><gpxx:DisplayColor>Cyan</gpxx:DisplayColor></gpxx:TrackExtension></extensions><trkseg>
<trkpt lat="48.04966536" lon="0.41401078"><ele></ele><time>2014-4-25T13:38:35Z</time></trkpt>
<trkpt lat="48.04962873" lon="0.41442434"><ele></ele><time>2014-4-25T13:38:38Z</time></trkpt>
<trkpt lat="48.04960677" lon="0.41463356"><ele></ele><time>2014-4-25T13:38:41Z</time></trkpt>
<trkpt lat="48.04950745" lon="0.41493304"><ele></ele><time>2014-4-25T13:38:44Z</time></trkpt>
<trkpt lat="48.04948239" lon="0.41511795"><ele></ele><time>2014-4-25T13:38:47Z</time></trkpt>
<trkpt lat="48.04955020" lon="0.41573368"><ele></ele><time>2014-4-25T13:38:50Z</time></trkpt>
<trkpt lat="48.04958138" lon="0.41592169"><ele></ele><time>2014-4-25T13:38:53Z</time></trkpt>
<trkpt lat="48.04962597" lon="0.41630826"><ele></ele><time>2014-4-25T13:38:56Z</time></trkpt>
<trkpt lat="48.04953067" lon="0.41652409"><ele></ele><time>2014-4-25T13:38:59Z</time></trkpt>
<trkpt lat="48.04947853" lon="0.41653910"><ele></ele><time>2014-4-25T13:39:2Z</time></trkpt>
<trkpt lat="48.04937024" lon="0.41656215"><ele></ele><time>2014-4-25T13:39:5Z</time></trkpt>
<trkpt lat="48.04897226" lon="0.41663817"><ele></ele><time>2014-4-25T13:39:8Z</time></trkpt>
<trkpt lat="48.04863540" lon="0.41671042"><ele></ele><time>2014-4-25T13:39:11Z</time></trkpt>
<trkpt lat="48.04834555" lon="0.41676474"><ele></ele><time>2014-4-25T13:39:14Z</time></trkpt>
<trkpt lat="48.04821747" lon="0.41677019"><ele></ele><time>2014-4-25T13:39:17Z</time></trkpt>
<trkpt lat="48.04810222" lon="0.41678309"><ele></ele><time>2014-4-25T13:39:20Z</time></trkpt>
<trkpt lat="48.04785705" lon="0.41681402"><ele></ele><time>2014-4-25T13:39:23Z</time></trkpt>
<trkpt lat="48.04782227" lon="0.41682123"><ele></ele><time>2014-4-25T13:39:26Z</time></trkpt>
<trkpt lat="48.04763066" lon="0.41683976"><ele></ele><time>2014-4-25T13:39:29Z</time></trkpt>
<trkpt lat="48.04752278" lon="0.41685375"><ele></ele><time>2014-4-25T13:39:32Z</time></trkpt>
<trkpt lat="48.04740242" lon="0.41684889"><ele></ele><time>2014-4-25T13:39:35Z</time></trkpt>
<trkpt lat="48.04718759" lon="0.41687295"><ele></ele><time>2014-4-25T13:39:38Z</time></trkpt>
<trkpt lat="48.04693169" lon="0.41691846"><ele></ele><time>2014-4-25T13:39:41Z</time></trkpt>
<trkpt lat="48.04676137" lon="0.41694109"><ele></ele><time>2014-4-25T13:39:44Z</time></trkpt>
<trkpt lat="48.04662902" lon="0.41696708"><ele></ele><time>2014-4-25T13:39:47Z</time></trkpt>
<trkpt lat="48.04653405" lon="0.41691008"><ele></ele><time>2014-4-25T13:39:50Z</time></trkpt>
<trkpt lat="48.04642467" lon="0.41696062"><ele></ele><time>2014-4-25T13:39:53Z</time></trkpt>
<trkpt lat="48.04639399" lon="0.41697915"><ele></ele><time>2014-4-25T13:39:56Z</time></trkpt>
<trkpt lat="48.04633213" lon="0.41715978"><ele></ele><time>2014-4-25T13:39:59Z</time></trkpt>
<trkpt lat="48.04630673" lon="0.41743688"><ele></ele><time>2014-4-25T13:40:2Z</time></trkpt>
<trkpt lat="48.04619584" lon="0.41801599"><ele></ele><time>2014-4-25T13:40:5Z</time></trkpt>
<trkpt lat="48.04615444" lon="0.41820785"><ele></ele><time>2014-4-25T13:40:8Z</time></trkpt>
<trkpt lat="48.04612979" lon="0.41830684"><ele></ele><time>2014-4-25T13:40:11Z</time></trkpt>
<trkpt lat="48.04604866" lon="0.41849074"><ele></ele><time>2014-4-25T13:40:14Z</time></trkpt>
<trkpt lat="48.04585738" lon="0.41871345"><ele></ele><time>2014-4-25T13:40:17Z</time></trkpt>
<trkpt lat="48.04578898" lon="0.41878612"><ele></ele><time>2014-4-25T13:40:20Z</time></trkpt>
<trkpt lat="48.04571983" lon="0.41885829"><ele></ele><time>2014-4-25T13:40:23Z</time></trkpt>
<trkpt lat="48.04511768" lon="0.41949037"><ele></ele><time>2014-4-25T13:40:26Z</time></trkpt>
<trkpt lat="48.04505523" lon="0.41955817"><ele></ele><time>2014-4-25T13:40:29Z</time></trkpt>
<trkpt lat="48.04499304" lon="0.41962448"><ele></ele><time>2014-4-25T13:40:32Z</time></trkpt>
<trkpt lat="48.04492934" lon="0.41968985"><ele></ele><time>2014-4-25T13:40:35Z</time></trkpt>
<trkpt lat="48.04486815" lon="0.41975473"><ele></ele><time>2014-4-25T13:40:38Z</time></trkpt>
<trkpt lat="48.04481023" lon="0.41981885"><ele></ele><time>2014-4-25T13:40:41Z</time></trkpt>
<trkpt lat="48.04460647" lon="0.42002907"><ele></ele><time>2014-4-25T13:40:44Z</time></trkpt>
<trkpt lat="48.04442332" lon="0.42015304"><ele></ele><time>2014-4-25T13:40:47Z</time></trkpt>
<trkpt lat="48.04406634" lon="0.42043995"><ele></ele><time>2014-4-25T13:40:50Z</time></trkpt>
<trkpt lat="48.04364699" lon="0.42070742"><ele></ele><time>2014-4-25T13:40:53Z</time></trkpt>
<trkpt lat="48.04358337" lon="0.42075218"><ele></ele><time>2014-4-25T13:40:56Z</time></trkpt>
<trkpt lat="48.04330476" lon="0.42080096"><ele></ele><time>2014-4-25T13:40:59Z</time></trkpt>
<trkpt lat="48.04323745" lon="0.42075276"><ele></ele><time>2014-4-25T13:41:2Z</time></trkpt>
<trkpt lat="48.04272649" lon="0.42021783"><ele></ele><time>2014-4-25T13:41:5Z</time></trkpt>
<trkpt lat="48.04234168" lon="0.41980988"><ele></ele><time>2014-4-25T13:41:8Z</time></trkpt>
<trkpt lat="48.04227713" lon="0.41974266"><ele></ele><time>2014-4-25T13:41:11Z</time></trkpt>
<trkpt lat="48.04221192" lon="0.41967737"><ele></ele><time>2014-4-25T13:41:14Z</time></trkpt>
<trkpt lat="48.04177766" lon="0.41922466"><ele></ele><time>2014-4-25T13:41:17Z</time></trkpt>
<trkpt lat="48.04172058" lon="0.41916029"><ele></ele><time>2014-4-25T13:41:20Z</time></trkpt>
<trkpt lat="48.04161052" lon="0.41903992"><ele></ele><time>2014-4-25T13:41:23Z</time></trkpt>
<trkpt lat="48.04146149" lon="0.41901469"><ele></ele><time>2014-4-25T13:41:26Z</time></trkpt>
<trkpt lat="48.04139796" lon="0.41904378"><ele></ele><time>2014-4-25T13:41:29Z</time></trkpt>
<trkpt lat="48.04128807" lon="0.41902693"><ele></ele><time>2014-4-25T13:41:32Z</time></trkpt>
<trkpt lat="48.04090284" lon="0.41913028"><ele></ele><time>2014-4-25T13:41:35Z</time></trkpt>
<trkpt lat="48.04051526" lon="0.41921879"><ele></ele><time>2014-4-25T13:41:38Z</time></trkpt>
<trkpt lat="48.04028459" lon="0.41926975"><ele></ele><time>2014-4-25T13:41:41Z</time></trkpt>
<trkpt lat="48.04002802" lon="0.41935424"><ele></ele><time>2014-4-25T13:41:44Z</time></trkpt>
<trkpt lat="48.03986507" lon="0.41939573"><ele></ele><time>2014-4-25T13:41:47Z</time></trkpt>
<trkpt lat="48.03970087" lon="0.41943404"><ele></ele><time>2014-4-25T13:41:50Z</time></trkpt>
<trkpt lat="48.03942167" lon="0.41943136"><ele></ele><time>2014-4-25T13:41:53Z</time></trkpt>
<trkpt lat="48.03905739" lon="0.41946094"><ele></ele><time>2014-4-25T13:41:56Z</time></trkpt>
<trkpt lat="48.03880066" lon="0.41951484"><ele></ele><time>2014-4-25T13:41:59Z</time></trkpt>
<trkpt lat="48.03853805" lon="0.41957024"><ele></ele><time>2014-4-25T13:42:2Z</time></trkpt>
<trkpt lat="48.03827947" lon="0.41964954"><ele></ele><time>2014-4-25T13:42:5Z</time></trkpt>
<trkpt lat="48.03811627" lon="0.41969757"><ele></ele><time>2014-4-25T13:42:8Z</time></trkpt>
<trkpt lat="48.03801024" lon="0.41971936"><ele></ele><time>2014-4-25T13:42:11Z</time></trkpt>
<trkpt lat="48.03788242" lon="0.41960134"><ele></ele><time>2014-4-25T13:42:14Z</time></trkpt>
<trkpt lat="48.03784638" lon="0.41955499"><ele></ele><time>2014-4-25T13:42:17Z</time></trkpt>
<trkpt lat="48.03761688" lon="0.41924964"><ele></ele><time>2014-4-25T13:42:20Z</time></trkpt>
<trkpt lat="48.03742602" lon="0.41922868"><ele></ele><time>2014-4-25T13:42:23Z</time></trkpt>
<trkpt lat="48.03732553" lon="0.41930320"><ele></ele><time>2014-4-25T13:42:26Z</time></trkpt>
<trkpt lat="48.03697734" lon="0.41945189"><ele></ele><time>2014-4-25T13:42:29Z</time></trkpt>
<trkpt lat="48.03667509" lon="0.41943379"><ele></ele><time>2014-4-25T13:42:32Z</time></trkpt>
<trkpt lat="48.03634007" lon="0.41922919"><ele></ele><time>2014-4-25T13:42:35Z</time></trkpt>
<trkpt lat="48.03615214" lon="0.41900329"><ele></ele><time>2014-4-25T13:42:38Z</time></trkpt>
<trkpt lat="48.03594025" lon="0.41845604"><ele></ele><time>2014-4-25T13:42:41Z</time></trkpt>
<trkpt lat="48.03590722" lon="0.41827683"><ele></ele><time>2014-4-25T13:42:44Z</time></trkpt>
<trkpt lat="48.03590932" lon="0.41774710"><ele></ele><time>2014-4-25T13:42:47Z</time></trkpt>
<trkpt lat="48.03593363" lon="0.41752565"><ele></ele><time>2014-4-25T13:42:50Z</time></trkpt>
<trkpt lat="48.03582416" lon="0.41747259"><ele></ele><time>2014-4-25T13:42:53Z</time></trkpt>
<trkpt lat="48.03554010" lon="0.41754534"><ele></ele><time>2014-4-25T13:42:56Z</time></trkpt>
<trkpt lat="48.03542225" lon="0.41759220"><ele></ele><time>2014-4-25T13:42:59Z</time></trkpt>
<trkpt lat="48.03533432" lon="0.41773947"><ele></ele><time>2014-4-25T13:43:2Z</time></trkpt>
<trkpt lat="48.03542652" lon="0.41772354"><ele></ele><time>2014-4-25T13:43:5Z</time></trkpt>
<trkpt lat="48.03552333" lon="0.41780342"><ele></ele><time>2014-4-25T13:43:8Z</time></trkpt>
<trkpt lat="48.03559206" lon="0.41826569"><ele></ele><time>2014-4-25T13:43:11Z</time></trkpt>
<trkpt lat="48.03562316" lon="0.41847968"><ele></ele><time>2014-4-25T13:43:14Z</time></trkpt>
<trkpt lat="48.03566809" lon="0.41886013"><ele></ele><time>2014-4-25T13:43:17Z</time></trkpt>
<trkpt lat="48.03574177" lon="0.41931133"><ele></ele><time>2014-4-25T13:43:20Z</time></trkpt>
<trkpt lat="48.03583439" lon="0.42000669"><ele></ele><time>2014-4-25T13:43:23Z</time></trkpt>
<trkpt lat="48.03586087" lon="0.42024608"><ele></ele><time>2014-4-25T13:43:26Z</time></trkpt>
<trkpt lat="48.03577362" lon="0.42049435"><ele></ele><time>2014-4-25T13:43:29Z</time></trkpt>
<trkpt lat="48.03572525" lon="0.42052084"><ele></ele><time>2014-4-25T13:43:32Z</time></trkpt>
<trkpt lat="48.03535092" lon="0.42062159"><ele></ele><time>2014-4-25T13:43:35Z</time></trkpt>
<trkpt lat="48.03482688" lon="0.42080272"><ele></ele><time>2014-4-25T13:43:38Z</time></trkpt>
<trkpt lat="48.03442094" lon="0.42091328"><ele></ele><time>2014-4-25T13:43:41Z</time></trkpt>
<trkpt lat="48.03401358" lon="0.42100414"><ele></ele><time>2014-4-25T13:43:44Z</time></trkpt>
<trkpt lat="48.03363992" lon="0.42106759"><ele></ele><time>2014-4-25T13:43:47Z</time></trkpt>
<trkpt lat="48.03326759" lon="0.42111612"><ele></ele><time>2014-4-25T13:43:50Z</time></trkpt>
<trkpt lat="48.03301203" lon="0.42116633"><ele></ele><time>2014-4-25T13:43:53Z</time></trkpt>
<trkpt lat="48.03271774" lon="0.42123388"><ele></ele><time>2014-4-25T13:43:56Z</time></trkpt>
<trkpt lat="48.03238875" lon="0.42134260"><ele></ele><time>2014-4-25T13:43:59Z</time></trkpt>
<trkpt lat="48.03228515" lon="0.42138945"><ele></ele><time>2014-4-25T13:44:2Z</time></trkpt>
<trkpt lat="48.03198684" lon="0.42152809"><ele></ele><time>2014-4-25T13:44:5Z</time></trkpt>
<trkpt lat="48.03186195" lon="0.42161166"><ele></ele><time>2014-4-25T13:44:8Z</time></trkpt>
<trkpt lat="48.03165735" lon="0.42174359"><ele></ele><time>2014-4-25T13:44:11Z</time></trkpt>
<trkpt lat="48.03153522" lon="0.42180276"><ele></ele><time>2014-4-25T13:44:14Z</time></trkpt>
<trkpt lat="48.03121252" lon="0.42207358"><ele></ele><time>2014-4-25T13:44:17Z</time></trkpt>
<trkpt lat="48.03098889" lon="0.42228154"><ele></ele><time>2014-4-25T13:44:20Z</time></trkpt>
<trkpt lat="48.03083802" lon="0.42242378"><ele></ele><time>2014-4-25T13:44:23Z</time></trkpt>
<trkpt lat="48.03047357" lon="0.42282628"><ele></ele><time>2014-4-25T13:44:26Z</time></trkpt>
<trkpt lat="48.03034105" lon="0.42296676"><ele></ele><time>2014-4-25T13:44:29Z</time></trkpt>
<trkpt lat="48.03018155" lon="0.42311076"><ele></ele><time>2014-4-25T13:44:32Z</time></trkpt>
<trkpt lat="48.03000569" lon="0.42324898"><ele></ele><time>2014-4-25T13:44:35Z</time></trkpt>
<trkpt lat="48.02984049" lon="0.42341008"><ele></ele><time>2014-4-25T13:44:38Z</time></trkpt>
<trkpt lat="48.02972733" lon="0.42355467"><ele></ele><time>2014-4-25T13:44:41Z</time></trkpt>
<trkpt lat="48.02955567" lon="0.42374276"><ele></ele><time>2014-4-25T13:44:44Z</time></trkpt>
<trkpt lat="48.02944478" lon="0.42387259"><ele></ele><time>2014-4-25T13:44:47Z</time></trkpt>
<trkpt lat="48.02930723" lon="0.42404199"><ele></ele><time>2014-4-25T13:44:50Z</time></trkpt>
<trkpt lat="48.02922525" lon="0.42412899"><ele></ele><time>2014-4-25T13:44:53Z</time></trkpt>
<trkpt lat="48.02908377" lon="0.42425347"><ele></ele><time>2014-4-25T13:44:56Z</time></trkpt>
<trkpt lat="48.02892124" lon="0.42439319"><ele></ele><time>2014-4-25T13:44:59Z</time></trkpt>
<trkpt lat="48.02880448" lon="0.42451037"><ele></ele><time>2014-4-25T13:45:2Z</time></trkpt>
<trkpt lat="48.02868219" lon="0.42463317"><ele></ele><time>2014-4-25T13:45:5Z</time></trkpt>
<trkpt lat="48.02854364" lon="0.42479292"><ele></ele><time>2014-4-25T13:45:8Z</time></trkpt>
<trkpt lat="48.02843082" lon="0.42490625"><ele></ele><time>2014-4-25T13:45:11Z</time></trkpt>
<trkpt lat="48.02828799" lon="0.42504405"><ele></ele><time>2014-4-25T13:45:14Z</time></trkpt>
<trkpt lat="48.02817048" lon="0.42518009"><ele></ele><time>2014-4-25T13:45:17Z</time></trkpt>
<trkpt lat="48.02812530" lon="0.42523457"><ele></ele><time>2014-4-25T13:45:20Z</time></trkpt>
<trkpt lat="48.02802505" lon="0.42535426"><ele></ele><time>2014-4-25T13:45:23Z</time></trkpt>
<trkpt lat="48.02793193" lon="0.42544923"><ele></ele><time>2014-4-25T13:45:26Z</time></trkpt>
<trkpt lat="48.02791273" lon="0.42546599"><ele></ele><time>2014-4-25T13:45:29Z</time></trkpt>
<trkpt lat="48.02785515" lon="0.42558049"><ele></ele><time>2014-4-25T13:45:32Z</time></trkpt>
<trkpt lat="48.02778600" lon="0.42573765"><ele></ele><time>2014-4-25T13:45:35Z</time></trkpt>
<trkpt lat="48.02771710" lon="0.42591199"><ele></ele><time>2014-4-25T13:45:38Z</time></trkpt>
<trkpt lat="48.02766119" lon="0.42598508"><ele></ele><time>2014-4-25T13:45:41Z</time></trkpt>
<trkpt lat="48.02757754" lon="0.42605096"><ele></ele><time>2014-4-25T13:45:44Z</time></trkpt>
<trkpt lat="48.02752440" lon="0.42610377"><ele></ele><time>2014-4-25T13:45:47Z</time></trkpt>
<trkpt lat="48.02747729" lon="0.42615054"><ele></ele><time>2014-4-25T13:45:50Z</time></trkpt>
<trkpt lat="48.02745139" lon="0.42616823"><ele></ele><time>2014-4-25T13:45:53Z</time></trkpt>
<trkpt lat="48.02734494" lon="0.42623855"><ele></ele><time>2014-4-25T13:45:56Z</time></trkpt>
<trkpt lat="48.02731016" lon="0.42624970"><ele></ele><time>2014-4-25T13:45:59Z</time></trkpt>
<trkpt lat="48.02712886" lon="0.42628557"><ele></ele><time>2014-4-25T13:46:2Z</time></trkpt>
<trkpt lat="48.02711067" lon="0.42629530"><ele></ele><time>2014-4-25T13:46:5Z</time></trkpt>
<trkpt lat="48.02701922" lon="0.42631432"><ele></ele><time>2014-4-25T13:46:8Z</time></trkpt>
<trkpt lat="48.02700313" lon="0.42631399"><ele></ele><time>2014-4-25T13:46:11Z</time></trkpt>
<trkpt lat="48.02689467" lon="0.42631223"><ele></ele><time>2014-4-25T13:46:14Z</time></trkpt>
<trkpt lat="48.02684127" lon="0.42630804"><ele></ele><time>2014-4-25T13:46:17Z</time></trkpt>
<trkpt lat="48.02673499" lon="0.42629597"><ele></ele><time>2014-4-25T13:46:20Z</time></trkpt>
<trkpt lat="48.02669954" lon="0.42628675"><ele></ele><time>2014-4-25T13:46:23Z</time></trkpt>
<trkpt lat="48.02664648" lon="0.42627719"><ele></ele><time>2014-4-25T13:46:26Z</time></trkpt>
<trkpt lat="48.02662779" lon="0.42627376"><ele></ele><time>2014-4-25T13:46:29Z</time></trkpt>
<trkpt lat="48.02647733" lon="0.42627677"><ele></ele><time>2014-4-25T13:46:32Z</time></trkpt>
<trkpt lat="48.02637390" lon="0.42629236"><ele></ele><time>2014-4-25T13:46:35Z</time></trkpt>
<trkpt lat="48.02626309" lon="0.42630209"><ele></ele><time>2014-4-25T13:46:38Z</time></trkpt>
<trkpt lat="48.02611414" lon="0.42630083"><ele></ele><time>2014-4-25T13:46:41Z</time></trkpt>
<trkpt lat="48.02594106" lon="0.42630846"><ele></ele><time>2014-4-25T13:46:44Z</time></trkpt>
<trkpt lat="48.02572162" lon="0.42631927"><ele></ele><time>2014-4-25T13:46:47Z</time></trkpt>
<trkpt lat="48.02549246" lon="0.42635137"><ele></ele><time>2014-4-25T13:46:50Z</time></trkpt>
<trkpt lat="48.02522457" lon="0.42643226"><ele></ele><time>2014-4-25T13:46:53Z</time></trkpt>
<trkpt lat="48.02488217" lon="0.42649965"><ele></ele><time>2014-4-25T13:46:56Z</time></trkpt>
<trkpt lat="48.02482777" lon="0.42650686"><ele></ele><time>2014-4-25T13:46:59Z</time></trkpt>
<trkpt lat="48.02461202" lon="0.42652010"><ele></ele><time>2014-4-25T13:47:2Z</time></trkpt>
<trkpt lat="48.02446442" lon="0.42656109"><ele></ele><time>2014-4-25T13:47:5Z</time></trkpt>
<trkpt lat="48.02417080" lon="0.42662596"><ele></ele><time>2014-4-25T13:47:8Z</time></trkpt>
<trkpt lat="48.02409285" lon="0.42665807"><ele></ele><time>2014-4-25T13:47:11Z</time></trkpt>
<trkpt lat="48.02404616" lon="0.42672403"><ele></ele><time>2014-4-25T13:47:14Z</time></trkpt>
<trkpt lat="48.02404130" lon="0.42681858"><ele></ele><time>2014-4-25T13:47:17Z</time></trkpt>
<trkpt lat="48.02409586" lon="0.42729526"><ele></ele><time>2014-4-25T13:47:20Z</time></trkpt>
<trkpt lat="48.02412638" lon="0.42740590"><ele></ele><time>2014-4-25T13:47:23Z</time></trkpt>
<trkpt lat="48.02416384" lon="0.42757362"><ele></ele><time>2014-4-25T13:47:26Z</time></trkpt>
<trkpt lat="48.02425755" lon="0.42797889"><ele></ele><time>2014-4-25T13:47:29Z</time></trkpt>
<trkpt lat="48.02428345" lon="0.42816932"><ele></ele><time>2014-4-25T13:47:32Z</time></trkpt>
<trkpt lat="48.02430499" lon="0.42873829"><ele></ele><time>2014-4-25T13:47:35Z</time></trkpt>
<trkpt lat="48.02432779" lon="0.42920239"><ele></ele><time>2014-4-25T13:47:38Z</time></trkpt>
<trkpt lat="48.02433383" lon="0.42933516"><ele></ele><time>2014-4-25T13:47:41Z</time></trkpt>
<trkpt lat="48.02433869" lon="0.42939920"><ele></ele><time>2014-4-25T13:47:44Z</time></trkpt>
<trkpt lat="48.02442452" lon="0.42959986"><ele></ele><time>2014-4-25T13:47:47Z</time></trkpt>
<trkpt lat="48.02450457" lon="0.42961679"><ele></ele><time>2014-4-25T13:47:50Z</time></trkpt>
<trkpt lat="48.02458797" lon="0.42961118"><ele></ele><time>2014-4-25T13:47:53Z</time></trkpt>
<trkpt lat="48.02479190" lon="0.42970304"><ele></ele><time>2014-4-25T13:47:56Z</time></trkpt>
<trkpt lat="48.02485879" lon="0.42979566"><ele></ele><time>2014-4-25T13:47:59Z</time></trkpt>
<trkpt lat="48.02516053" lon="0.43035574"><ele></ele><time>2014-4-25T13:48:2Z</time></trkpt>
<trkpt lat="48.02540688" lon="0.43092529"><ele></ele><time>2014-4-25T13:48:5Z</time></trkpt>
<trkpt lat="48.02555683" lon="0.43143072"><ele></ele><time>2014-4-25T13:48:8Z</time></trkpt>
<trkpt lat="48.02565213" lon="0.43212164"><ele></ele><time>2014-4-25T13:48:11Z</time></trkpt>
<trkpt lat="48.02578700" lon="0.43302798"><ele></ele><time>2014-4-25T13:48:14Z</time></trkpt>
<trkpt lat="48.02586235" lon="0.43342696"><ele></ele><time>2014-4-25T13:48:17Z</time></trkpt>
<trkpt lat="48.02585464" lon="0.43372887"><ele></ele><time>2014-4-25T13:48:20Z</time></trkpt>
<trkpt lat="48.02588398" lon="0.43430354"><ele></ele><time>2014-4-25T13:48:23Z</time></trkpt>
<trkpt lat="48.02587836" lon="0.43447268"><ele></ele><time>2014-4-25T13:48:26Z</time></trkpt>
<trkpt lat="48.02580988" lon="0.43523518"><ele></ele><time>2014-4-25T13:48:29Z</time></trkpt>
<trkpt lat="48.02580762" lon="0.43557557"><ele></ele><time>2014-4-25T13:48:32Z</time></trkpt>
<trkpt lat="48.02582187" lon="0.43579183"><ele></ele><time>2014-4-25T13:48:35Z</time></trkpt>
<trkpt lat="48.02582472" lon="0.43585553"><ele></ele><time>2014-4-25T13:48:38Z</time></trkpt>
<trkpt lat="48.02582514" lon="0.43597346"><ele></ele><time>2014-4-25T13:48:41Z</time></trkpt>
<trkpt lat="48.02582799" lon="0.43609140"><ele></ele><time>2014-4-25T13:48:44Z</time></trkpt>
<trkpt lat="48.02582924" lon="0.43615233"><ele></ele><time>2014-4-25T13:48:47Z</time></trkpt>
<trkpt lat="48.02584039" lon="0.43667989"><ele></ele><time>2014-4-25T13:48:50Z</time></trkpt>
<trkpt lat="48.02585313" lon="0.43726528"><ele></ele><time>2014-4-25T13:48:53Z</time></trkpt>
<trkpt lat="48.02585397" lon="0.43734055"><ele></ele><time>2014-4-25T13:48:56Z</time></trkpt>
<trkpt lat="48.02585355" lon="0.43741649"><ele></ele><time>2014-4-25T13:48:59Z</time></trkpt>
<trkpt lat="48.02585288" lon="0.43749268"><ele></ele><time>2014-4-25T13:49:2Z</time></trkpt>
<trkpt lat="48.02585975" lon="0.43802979"><ele></ele><time>2014-4-25T13:49:5Z</time></trkpt>
<trkpt lat="48.02584844" lon="0.43886547"><ele></ele><time>2014-4-25T13:49:8Z</time></trkpt>
<trkpt lat="48.02584006" lon="0.43938884"><ele></ele><time>2014-4-25T13:49:11Z</time></trkpt>
<trkpt lat="48.02582472" lon="0.43968857"><ele></ele><time>2014-4-25T13:49:14Z</time></trkpt>
<trkpt lat="48.02578314" lon="0.44022418"><ele></ele><time>2014-4-25T13:49:17Z</time></trkpt>
<trkpt lat="48.02576286" lon="0.44092817"><ele></ele><time>2014-4-25T13:49:20Z</time></trkpt>
<trkpt lat="48.02582907" lon="0.44109229"><ele></ele><time>2014-4-25T13:49:23Z</time></trkpt>
<trkpt lat="48.02593335" lon="0.44099623"><ele></ele><time>2014-4-25T13:49:26Z</time></trkpt>
<trkpt lat="48.02629192" lon="0.44069340"><ele></ele><time>2014-4-25T13:49:29Z</time></trkpt>
<trkpt lat="48.02672024" lon="0.44034328"><ele></ele><time>2014-4-25T13:49:32Z</time></trkpt>
<trkpt lat="48.02680909" lon="0.44025502"><ele></ele><time>2014-4-25T13:49:35Z</time></trkpt>
<trkpt lat="48.02701352" lon="0.44003810"><ele></ele><time>2014-4-25T13:49:38Z</time></trkpt>
<trkpt lat="48.02713632" lon="0.43989209"><ele></ele><time>2014-4-25T13:49:41Z</time></trkpt>
<trkpt lat="48.02745458" lon="0.43925665"><ele></ele><time>2014-4-25T13:49:44Z</time></trkpt>
<trkpt lat="48.02756706" lon="0.43899883"><ele></ele><time>2014-4-25T13:49:47Z</time></trkpt>
<trkpt lat="48.02766295" lon="0.43876857"><ele></ele><time>2014-4-25T13:49:50Z</time></trkpt>
<trkpt lat="48.02773168" lon="0.43863622"><ele></ele><time>2014-4-25T13:49:53Z</time></trkpt>
<trkpt lat="48.02781123" lon="0.43847873"><ele></ele><time>2014-4-25T13:49:56Z</time></trkpt>
<trkpt lat="48.02793612" lon="0.43827857"><ele></ele><time>2014-4-25T13:49:59Z</time></trkpt>
<trkpt lat="48.02807467" lon="0.43811420"><ele></ele><time>2014-4-25T13:50:2Z</time></trkpt>
<trkpt lat="48.02821750" lon="0.43799719"><ele></ele><time>2014-4-25T13:50:5Z</time></trkpt>
<trkpt lat="48.02830769" lon="0.43797472"><ele></ele><time>2014-4-25T13:50:8Z</time></trkpt>
<trkpt lat="48.02861648" lon="0.43790038"><ele></ele><time>2014-4-25T13:50:11Z</time></trkpt>
<trkpt lat="48.02867658" lon="0.43789384"><ele></ele><time>2014-4-25T13:50:14Z</time></trkpt>
<trkpt lat="48.02893658" lon="0.43785268"><ele></ele><time>2014-4-25T13:50:17Z</time></trkpt>
<trkpt lat="48.02909072" lon="0.43786023"><ele></ele><time>2014-4-25T13:50:20Z</time></trkpt>
<trkpt lat="48.02921092" lon="0.43784548"><ele></ele><time>2014-4-25T13:50:23Z</time></trkpt>
<trkpt lat="48.02935945" lon="0.43781765"><ele></ele><time>2014-4-25T13:50:26Z</time></trkpt>
<trkpt lat="48.02954335" lon="0.43776954"><ele></ele><time>2014-4-25T13:50:29Z</time></trkpt>
<trkpt lat="48.02981618" lon="0.43757709"><ele></ele><time>2014-4-25T13:50:32Z</time></trkpt>
<trkpt lat="48.03014416" lon="0.43736184"><ele></ele><time>2014-4-25T13:50:35Z</time></trkpt>
<trkpt lat="48.03047307" lon="0.43710670"><ele></ele><time>2014-4-25T13:50:38Z</time></trkpt>
<trkpt lat="48.03074489" lon="0.43680637"><ele></ele><time>2014-4-25T13:50:41Z</time></trkpt>
<trkpt lat="48.03079803" lon="0.43670545"><ele></ele><time>2014-4-25T13:50:44Z</time></trkpt>
<trkpt lat="48.03085235" lon="0.43663907"><ele></ele><time>2014-4-25T13:50:47Z</time></trkpt>
<trkpt lat="48.03095528" lon="0.43655022"><ele></ele><time>2014-4-25T13:50:50Z</time></trkpt>
<trkpt lat="48.03100959" lon="0.43653656"><ele></ele><time>2014-4-25T13:50:53Z</time></trkpt>
<trkpt lat="48.03103114" lon="0.43652893"><ele></ele><time>2014-4-25T13:50:56Z</time></trkpt>
<trkpt lat="48.03107020" lon="0.43651678"><ele></ele><time>2014-4-25T13:50:59Z</time></trkpt>
<trkpt lat="48.03111906" lon="0.43652667"><ele></ele><time>2014-4-25T13:51:2Z</time></trkpt>
<trkpt lat="48.03117799" lon="0.43653195"><ele></ele><time>2014-4-25T13:51:5Z</time></trkpt>
<trkpt lat="48.03132283" lon="0.43655969"><ele></ele><time>2014-4-25T13:51:8Z</time></trkpt>
<trkpt lat="48.03146716" lon="0.43658769"><ele></ele><time>2014-4-25T13:51:11Z</time></trkpt>
<trkpt lat="48.03159063" lon="0.43661007"><ele></ele><time>2014-4-25T13:51:14Z</time></trkpt>
<trkpt lat="48.03170890" lon="0.43661174"><ele></ele><time>2014-4-25T13:51:17Z</time></trkpt>
<trkpt lat="48.03181702" lon="0.43662666"><ele></ele><time>2014-4-25T13:51:20Z</time></trkpt>
<trkpt lat="48.03198818" lon="0.43657285"><ele></ele><time>2014-4-25T13:51:23Z</time></trkpt>
<trkpt lat="48.03214383" lon="0.43646607"><ele></ele><time>2014-4-25T13:51:26Z</time></trkpt>
<trkpt lat="48.03233184" lon="0.43634268"><ele></ele><time>2014-4-25T13:51:29Z</time></trkpt>
<trkpt lat="48.03249059" lon="0.43621629"><ele></ele><time>2014-4-25T13:51:32Z</time></trkpt>
<trkpt lat="48.03269025" lon="0.43607907"><ele></ele><time>2014-4-25T13:51:35Z</time></trkpt>
<trkpt lat="48.03286166" lon="0.43591630"><ele></ele><time>2014-4-25T13:51:38Z</time></trkpt>
<trkpt lat="48.03297088" lon="0.43581219"><ele></ele><time>2014-4-25T13:51:41Z</time></trkpt>
<trkpt lat="48.03310289" lon="0.43567113"><ele></ele><time>2014-4-25T13:51:44Z</time></trkpt>
<trkpt lat="48.03323633" lon="0.43553953"><ele></ele><time>2014-4-25T13:51:47Z</time></trkpt>
<trkpt lat="48.03343339" lon="0.43533417"><ele></ele><time>2014-4-25T13:51:50Z</time></trkpt>
<trkpt lat="48.03360664" lon="0.43517525"><ele></ele><time>2014-4-25T13:51:53Z</time></trkpt>
<trkpt lat="48.03374168" lon="0.43506855"><ele></ele><time>2014-4-25T13:51:56Z</time></trkpt>
<trkpt lat="48.03377705" lon="0.43503477"><ele></ele><time>2014-4-25T13:51:59Z</time></trkpt>
<trkpt lat="48.03392599" lon="0.43488524"><ele></ele><time>2014-4-25T13:52:2Z</time></trkpt>
<trkpt lat="48.03417167" lon="0.43463370"><ele></ele><time>2014-4-25T13:52:5Z</time></trkpt>
<trkpt lat="48.03435339" lon="0.43444335"><ele></ele><time>2014-4-25T13:52:8Z</time></trkpt>
<trkpt lat="48.03438943" lon="0.43439657"><ele></ele><time>2014-4-25T13:52:11Z</time></trkpt>
<trkpt lat="48.03457224" lon="0.43417068"><ele></ele><time>2014-4-25T13:52:14Z</time></trkpt>
<trkpt lat="48.03476242" lon="0.43396465"><ele></ele><time>2014-4-25T13:52:17Z</time></trkpt>
<trkpt lat="48.03485689" lon="0.43388654"><ele></ele><time>2014-4-25T13:52:20Z</time></trkpt>
<trkpt lat="48.03496828" lon="0.43366970"><ele></ele><time>2014-4-25T13:52:23Z</time></trkpt>
<trkpt lat="48.03511765" lon="0.43345529"><ele></ele><time>2014-4-25T13:52:26Z</time></trkpt>
<trkpt lat="48.03516610" lon="0.43335848"><ele></ele><time>2014-4-25T13:52:29Z</time></trkpt>
<trkpt lat="48.03521974" lon="0.43285095"><ele></ele><time>2014-4-25T13:52:32Z</time></trkpt>
<trkpt lat="48.03526039" lon="0.43212106"><ele></ele><time>2014-4-25T13:52:35Z</time></trkpt>
<trkpt lat="48.03530482" lon="0.43133894"><ele></ele><time>2014-4-25T13:52:38Z</time></trkpt>
<trkpt lat="48.03534999" lon="0.43059228"><ele></ele><time>2014-4-25T13:52:41Z</time></trkpt>
<trkpt lat="48.03539459" lon="0.42967689"><ele></ele><time>2014-4-25T13:52:44Z</time></trkpt>
<trkpt lat="48.03547539" lon="0.42870887"><ele></ele><time>2014-4-25T13:52:47Z</time></trkpt>
<trkpt lat="48.03562199" lon="0.42818382"><ele></ele><time>2014-4-25T13:52:50Z</time></trkpt>
<trkpt lat="48.03576037" lon="0.42788727"><ele></ele><time>2014-4-25T13:52:53Z</time></trkpt>
<trkpt lat="48.03625935" lon="0.42721404"><ele></ele><time>2014-4-25T13:52:56Z</time></trkpt>
<trkpt lat="48.03632464" lon="0.42714405"><ele></ele><time>2014-4-25T13:52:59Z</time></trkpt>
<trkpt lat="48.03659806" lon="0.42699887"><ele></ele><time>2014-4-25T13:53:2Z</time></trkpt>
<trkpt lat="48.03666704" lon="0.42700734"><ele></ele><time>2014-4-25T13:53:5Z</time></trkpt>
<trkpt lat="48.03697810" lon="0.42688044"><ele></ele><time>2014-4-25T13:53:8Z</time></trkpt>
<trkpt lat="48.03719309" lon="0.42660115"><ele></ele><time>2014-4-25T13:53:11Z</time></trkpt>
<trkpt lat="48.03776239" lon="0.42624719"><ele></ele><time>2014-4-25T13:53:14Z</time></trkpt>
<trkpt lat="48.03826212" lon="0.42586044"><ele></ele><time>2014-4-25T13:53:17Z</time></trkpt>
<trkpt lat="48.03850989" lon="0.42557764"><ele></ele><time>2014-4-25T13:53:20Z</time></trkpt>
<trkpt lat="48.03862992" lon="0.42529232"><ele></ele><time>2014-4-25T13:53:23Z</time></trkpt>
<trkpt lat="48.03863402" lon="0.42517497"><ele></ele><time>2014-4-25T13:53:26Z</time></trkpt>
<trkpt lat="48.03866328" lon="0.42422907"><ele></ele><time>2014-4-25T13:53:29Z</time></trkpt>
<trkpt lat="48.03861173" lon="0.42379866"><ele></ele><time>2014-4-25T13:53:32Z</time></trkpt>
<trkpt lat="48.03858222" lon="0.42360236"><ele></ele><time>2014-4-25T13:53:35Z</time></trkpt>
<trkpt lat="48.03855255" lon="0.42342240"><ele></ele><time>2014-4-25T13:53:38Z</time></trkpt>
<trkpt lat="48.03839824" lon="0.42324328"><ele></ele><time>2014-4-25T13:53:41Z</time></trkpt>
<trkpt lat="48.03828835" lon="0.42310347"><ele></ele><time>2014-4-25T13:53:44Z</time></trkpt>
<trkpt lat="48.03827838" lon="0.42302124"><ele></ele><time>2014-4-25T13:53:47Z</time></trkpt>
<trkpt lat="48.03830914" lon="0.42239872"><ele></ele><time>2014-4-25T13:53:50Z</time></trkpt>
<trkpt lat="48.03831769" lon="0.42227928"><ele></ele><time>2014-4-25T13:53:53Z</time></trkpt>
<trkpt lat="48.03824720" lon="0.42193847"><ele></ele><time>2014-4-25T13:53:56Z</time></trkpt>
<trkpt lat="48.03819347" lon="0.42185054"><ele></ele><time>2014-4-25T13:53:59Z</time></trkpt>
<trkpt lat="48.03811703" lon="0.42141778"><ele></ele><time>2014-4-25T13:54:2Z</time></trkpt>
<trkpt lat="48.03807177" lon="0.42109416"><ele></ele><time>2014-4-25T13:54:5Z</time></trkpt>
<trkpt lat="48.03807160" lon="0.42071647"><ele></ele><time>2014-4-25T13:54:8Z</time></trkpt>
<trkpt lat="48.03805676" lon="0.42063634"><ele></ele><time>2014-4-25T13:54:11Z</time></trkpt>
<trkpt lat="48.03791754" lon="0.41973227"><ele></ele><time>2014-4-25T13:54:14Z</time></trkpt>
<trkpt lat="48.03788686" lon="0.41928157"><ele></ele><time>2014-4-25T13:54:17Z</time></trkpt>
<trkpt lat="48.03788259" lon="0.41918728"><ele></ele><time>2014-4-25T13:54:20Z</time></trkpt>
<trkpt lat="48.03796833" lon="0.41883666"><ele></ele><time>2014-4-25T13:54:23Z</time></trkpt>
<trkpt lat="48.03800563" lon="0.41875846"><ele></ele><time>2014-4-25T13:54:26Z</time></trkpt>
<trkpt lat="48.03833982" lon="0.41827683"><ele></ele><time>2014-4-25T13:54:29Z</time></trkpt>
<trkpt lat="48.03846597" lon="0.41790225"><ele></ele><time>2014-4-25T13:54:32Z</time></trkpt>
<trkpt lat="48.03860880" lon="0.41747946"><ele></ele><time>2014-4-25T13:54:35Z</time></trkpt>
<trkpt lat="48.03865523" lon="0.41741668"><ele></ele><time>2014-4-25T13:54:38Z</time></trkpt>
<trkpt lat="48.03888624" lon="0.41729414"><ele></ele><time>2014-4-25T13:54:41Z</time></trkpt>
<trkpt lat="48.03893862" lon="0.41727637"><ele></ele><time>2014-4-25T13:54:44Z</time></trkpt>
<trkpt lat="48.03927004" lon="0.41718258"><ele></ele><time>2014-4-25T13:54:47Z</time></trkpt>
<trkpt lat="48.03951018" lon="0.41722214"><ele></ele><time>2014-4-25T13:54:50Z</time></trkpt>
<trkpt lat="48.03983624" lon="0.41734552"><ele></ele><time>2014-4-25T13:54:53Z</time></trkpt>
<trkpt lat="48.03999675" lon="0.41738760"><ele></ele><time>2014-4-25T13:54:56Z</time></trkpt>
<trkpt lat="48.03998318" lon="0.41737167"><ele></ele><time>2014-4-25T13:54:59Z</time></trkpt>
<trkpt lat="48.03989617" lon="0.41725240"><ele></ele><time>2014-4-25T13:55:2Z</time></trkpt>
<trkpt lat="48.03976927" lon="0.41705634"><ele></ele><time>2014-4-25T13:55:5Z</time></trkpt>
<trkpt lat="48.03960507" lon="0.41686398"><ele></ele><time>2014-4-25T13:55:8Z</time></trkpt>
<trkpt lat="48.03929418" lon="0.41651856"><ele></ele><time>2014-4-25T13:55:11Z</time></trkpt>
<trkpt lat="48.03903569" lon="0.41625378"><ele></ele><time>2014-4-25T13:55:14Z</time></trkpt>
<trkpt lat="48.03890225" lon="0.41612729"><ele></ele><time>2014-4-25T13:55:17Z</time></trkpt>
<trkpt lat="48.03880912" lon="0.41602219"><ele></ele><time>2014-4-25T13:55:20Z</time></trkpt>
<trkpt lat="48.03887350" lon="0.41589486"><ele></ele><time>2014-4-25T13:55:23Z</time></trkpt>
<trkpt lat="48.03895983" lon="0.41582102"><ele></ele><time>2014-4-25T13:55:26Z</time></trkpt>
<trkpt lat="48.03898908" lon="0.41577945"><ele></ele><time>2014-4-25T13:55:29Z</time></trkpt>
<trkpt lat="48.03904843" lon="0.41569219"><ele></ele><time>2014-4-25T13:55:32Z</time></trkpt>
<trkpt lat="48.03918673" lon="0.41537368"><ele></ele><time>2014-4-25T13:55:35Z</time></trkpt>
<trkpt lat="48.03920592" lon="0.41530788"><ele></ele><time>2014-4-25T13:55:38Z</time></trkpt>
<trkpt lat="48.03936333" lon="0.41489666"><ele></ele><time>2014-4-25T13:55:41Z</time></trkpt>
<trkpt lat="48.03940675" lon="0.41473565"><ele></ele><time>2014-4-25T13:55:44Z</time></trkpt>
<trkpt lat="48.03942469" lon="0.41449475"><ele></ele><time>2014-4-25T13:55:47Z</time></trkpt>
<trkpt lat="48.03933484" lon="0.41392813"><ele></ele><time>2014-4-25T13:55:50Z</time></trkpt>
<trkpt lat="48.03931748" lon="0.41382688"><ele></ele><time>2014-4-25T13:55:53Z</time></trkpt>
<trkpt lat="48.03921053" lon="0.41329606"><ele></ele><time>2014-4-25T13:55:56Z</time></trkpt>
<trkpt lat="48.03919159" lon="0.41318533"><ele></ele><time>2014-4-25T13:55:59Z</time></trkpt>
<trkpt lat="48.03909042" lon="0.41276255"><ele></ele><time>2014-4-25T13:56:2Z</time></trkpt>
<trkpt lat="48.03894214" lon="0.41191489"><ele></ele><time>2014-4-25T13:56:5Z</time></trkpt>
<trkpt lat="48.03881382" lon="0.41121692"><ele></ele><time>2014-4-25T13:56:8Z</time></trkpt>
<trkpt lat="48.03870033" lon="0.41068995"><ele></ele><time>2014-4-25T13:56:11Z</time></trkpt>
<trkpt lat="48.03857862" lon="0.41000524"><ele></ele><time>2014-4-25T13:56:14Z</time></trkpt>
<trkpt lat="48.03850796" lon="0.40946527"><ele></ele><time>2014-4-25T13:56:17Z</time></trkpt>
<trkpt lat="48.03842632" lon="0.40908088"><ele></ele><time>2014-4-25T13:56:20Z</time></trkpt>
<trkpt lat="48.03848164" lon="0.40885633"><ele></ele><time>2014-4-25T13:56:23Z</time></trkpt>
<trkpt lat="48.03859513" lon="0.40881526"><ele></ele><time>2014-4-25T13:56:26Z</time></trkpt>
<trkpt lat="48.03922067" lon="0.40871635"><ele></ele><time>2014-4-25T13:56:29Z</time></trkpt>
<trkpt lat="48.03980540" lon="0.40861510"><ele></ele><time>2014-4-25T13:56:32Z</time></trkpt>
<trkpt lat="48.04048064" lon="0.40849825"><ele></ele><time>2014-4-25T13:56:35Z</time></trkpt>
<trkpt lat="48.04112144" lon="0.40838099"><ele></ele><time>2014-4-25T13:56:38Z</time></trkpt>
<trkpt lat="48.04119377" lon="0.40837429"><ele></ele><time>2014-4-25T13:56:41Z</time></trkpt>
<trkpt lat="48.04129922" lon="0.40840253"><ele></ele><time>2014-4-25T13:56:44Z</time></trkpt>
<trkpt lat="48.04133358" lon="0.40846540"><ele></ele><time>2014-4-25T13:56:47Z</time></trkpt>
<trkpt lat="48.04139033" lon="0.40861476"><ele></ele><time>2014-4-25T13:56:50Z</time></trkpt>
<trkpt lat="48.04160616" lon="0.40935002"><ele></ele><time>2014-4-25T13:56:53Z</time></trkpt>
<trkpt lat="48.04179492" lon="0.40993609"><ele></ele><time>2014-4-25T13:56:56Z</time></trkpt>
<trkpt lat="48.04187539" lon="0.41018176"><ele></ele><time>2014-4-25T13:56:59Z</time></trkpt>
<trkpt lat="48.04202702" lon="0.41038678"><ele></ele><time>2014-4-25T13:57:2Z</time></trkpt>
<trkpt lat="48.04205652" lon="0.41044428"><ele></ele><time>2014-4-25T13:57:5Z</time></trkpt>
<trkpt lat="48.04231963" lon="0.41124609"><ele></ele><time>2014-4-25T13:57:8Z</time></trkpt>
<trkpt lat="48.04252138" lon="0.41182025"><ele></ele><time>2014-4-25T13:57:11Z</time></trkpt>
<trkpt lat="48.04284467" lon="0.41261804"><ele></ele><time>2014-4-25T13:57:14Z</time></trkpt>
<trkpt lat="48.04310493" lon="0.41326085"><ele></ele><time>2014-4-25T13:57:17Z</time></trkpt>
<trkpt lat="48.04339377" lon="0.41398245"><ele></ele><time>2014-4-25T13:57:20Z</time></trkpt>
<trkpt lat="48.04361824" lon="0.41460874"><ele></ele><time>2014-4-25T13:57:23Z</time></trkpt>
<trkpt lat="48.04380566" lon="0.41515809"><ele></ele><time>2014-4-25T13:57:26Z</time></trkpt>
<trkpt lat="48.04405577" lon="0.41584952"><ele></ele><time>2014-4-25T13:57:29Z</time></trkpt>
<trkpt lat="48.04430229" lon="0.41644773"><ele></ele><time>2014-4-25T13:57:32Z</time></trkpt>
<trkpt lat="48.04451024" lon="0.41694562"><ele></ele><time>2014-4-25T13:57:35Z</time></trkpt>
<trkpt lat="48.04461585" lon="0.41726388"><ele></ele><time>2014-4-25T13:57:38Z</time></trkpt>
<trkpt lat="48.04471669" lon="0.41765523"><ele></ele><time>2014-4-25T13:57:41Z</time></trkpt>
<trkpt lat="48.04475667" lon="0.41786604"><ele></ele><time>2014-4-25T13:57:44Z</time></trkpt>
<trkpt lat="48.04485893" lon="0.41841824"><ele></ele><time>2014-4-25T13:57:47Z</time></trkpt>
<trkpt lat="48.04488692" lon="0.41855662"><ele></ele><time>2014-4-25T13:57:50Z</time></trkpt>
<trkpt lat="48.04503713" lon="0.41892626"><ele></ele><time>2014-4-25T13:57:53Z</time></trkpt>
<trkpt lat="48.04517007" lon="0.41910170"><ele></ele><time>2014-4-25T13:57:56Z</time></trkpt>
<trkpt lat="48.04536436" lon="0.41925710"><ele></ele><time>2014-4-25T13:57:59Z</time></trkpt>
<trkpt lat="48.04548212" lon="0.41916423"><ele></ele><time>2014-4-25T13:58:2Z</time></trkpt>
<trkpt lat="48.04556410" lon="0.41909457"><ele></ele><time>2014-4-25T13:58:5Z</time></trkpt>
<trkpt lat="48.04557634" lon="0.41908057"><ele></ele><time>2014-4-25T13:58:8Z</time></trkpt>
<trkpt lat="48.04567767" lon="0.41893682"><ele></ele><time>2014-4-25T13:58:11Z</time></trkpt>
<trkpt lat="48.04581849" lon="0.41876399"><ele></ele><time>2014-4-25T13:58:14Z</time></trkpt>
<trkpt lat="48.04599652" lon="0.41855955"><ele></ele><time>2014-4-25T13:58:17Z</time></trkpt>
<trkpt lat="48.04608059" lon="0.41844372"><ele></ele><time>2014-4-25T13:58:20Z</time></trkpt>
<trkpt lat="48.04616902" lon="0.41819913"><ele></ele><time>2014-4-25T13:58:23Z</time></trkpt>
<trkpt lat="48.04629693" lon="0.41761332"><ele></ele><time>2014-4-25T13:58:26Z</time></trkpt>
<trkpt lat="48.04639935" lon="0.41711192"><ele></ele><time>2014-4-25T13:58:29Z</time></trkpt>
<trkpt lat="48.04653640" lon="0.41692559"><ele></ele><time>2014-4-25T13:58:32Z</time></trkpt>
<trkpt lat="48.04658677" lon="0.41690773"><ele></ele><time>2014-4-25T13:58:35Z</time></trkpt>
<trkpt lat="48.04689766" lon="0.41685258"><ele></ele><time>2014-4-25T13:58:38Z</time></trkpt>
<trkpt lat="48.04717233" lon="0.41683255"><ele></ele><time>2014-4-25T13:58:41Z</time></trkpt>
<trkpt lat="48.04747819" lon="0.41679692"><ele></ele><time>2014-4-25T13:58:44Z</time></trkpt>
<trkpt lat="48.04760073" lon="0.41678896"><ele></ele><time>2014-4-25T13:58:47Z</time></trkpt>
<trkpt lat="48.04772646" lon="0.41678427"><ele></ele><time>2014-4-25T13:58:50Z</time></trkpt>
<trkpt lat="48.04780877" lon="0.41676298"><ele></ele><time>2014-4-25T13:58:53Z</time></trkpt>
<trkpt lat="48.04808588" lon="0.41673926"><ele></ele><time>2014-4-25T13:58:56Z</time></trkpt>
<trkpt lat="48.04829995" lon="0.41669986"><ele></ele><time>2014-4-25T13:58:59Z</time></trkpt>
<trkpt lat="48.04865417" lon="0.41662677"><ele></ele><time>2014-4-25T13:59:2Z</time></trkpt>
<trkpt lat="48.04900688" lon="0.41657296"><ele></ele><time>2014-4-25T13:59:5Z</time></trkpt>
<trkpt lat="48.04914309" lon="0.41654773"><ele></ele><time>2014-4-25T13:59:8Z</time></trkpt>
<trkpt lat="48.04942338" lon="0.41648679"><ele></ele><time>2014-4-25T13:59:11Z</time></trkpt>
<trkpt lat="48.04946462" lon="0.41647347"><ele></ele><time>2014-4-25T13:59:14Z</time></trkpt>
<trkpt lat="48.04955615" lon="0.41629476"><ele></ele><time>2014-4-25T13:59:17Z</time></trkpt>
<trkpt lat="48.04951105" lon="0.41572077"><ele></ele><time>2014-4-25T13:59:20Z</time></trkpt>
<trkpt lat="48.04949345" lon="0.41558968"><ele></ele><time>2014-4-25T13:59:23Z</time></trkpt>
<trkpt lat="48.04946856" lon="0.41521098"><ele></ele><time>2014-4-25T13:59:26Z</time></trkpt>
<trkpt lat="48.04952924" lon="0.41487487"><ele></ele><time>2014-4-25T13:59:29Z</time></trkpt>
<trkpt lat="48.04956445" lon="0.41470614"><ele></ele><time>2014-4-25T13:59:32Z</time></trkpt>
<trkpt lat="48.04962739" lon="0.41413718"><ele></ele><time>2014-4-25T13:59:35Z</time></trkpt>
<trkpt lat="48.04965178" lon="0.41374633"><ele></ele><time>2014-4-25T13:59:38Z</time></trkpt>
<trkpt lat="48.04957735" lon="0.41365304"><ele></ele><time>2014-4-25T13:59:41Z</time></trkpt>
<trkpt lat="48.04930176" lon="0.41362639"><ele></ele><time>2014-4-25T13:59:44Z</time></trkpt>
<trkpt lat="48.04910738" lon="0.41360778"><ele></ele><time>2014-4-25T13:59:47Z</time></trkpt>
<trkpt lat="48.04885567" lon="0.41359093"><ele></ele><time>2014-4-25T13:59:50Z</time></trkpt>
<trkpt lat="48.04866523" lon="0.41353636"><ele></ele><time>2014-4-25T13:59:53Z</time></trkpt>
<trkpt lat="48.04857396" lon="0.41344198"><ele></ele><time>2014-4-25T13:59:56Z</time></trkpt>
<trkpt lat="48.04852995" lon="0.41341315"><ele></ele><time>2014-4-25T13:59:59Z</time></trkpt>
<trkpt lat="48.04839894" lon="0.41340150"><ele></ele><time>2014-4-25T14:0:2Z</time></trkpt>
<trkpt lat="48.04833197" lon="0.41338247"><ele></ele><time>2014-4-25T14:0:5Z</time></trkpt>
</trkseg></trk></gpx>